Jackson Evers International Airport
KJAN : now visible

Airfield :











YOU CAN JOIN US ON...

 
LOGIN :

Register | Disclaimer

   EN    FR    IT 

 









Legend :    VFR   Marginal VFR   IFR   Intensive IFR   Very Intensive IFR
Visi :
Ceiling :
>= 8 km
>= 3000ft
5 to 8 km
1000 to 3000 ft
1500m to 5 km
500 to 1000 ft
800 to 1500m
200 to 500 ft
< 800m
< 200 ft
Symbols :   Thunderstorms  Fog  Heavy snow  Heavy precipitations  Wind > 20 kt






- Airport Elevation : 346 ft
- IATA code : JAN


KJAN - Jackson Evers International

CURRENT METAR :
  • 041254Z 07005KT 10SM BKN100 16/12 A3003 RMK AO2 SLP165 T01560122

EXPIRED METARs :
  • 041154Z 00000KT 10SM BKN100 15/12 A3002 RMK AO2 SLP164 T01500122 10156 20139 53010
  • 041054Z AUTO 00000KT 9SM CLR 14/13 A3001 RMK AO2 SLP160 T01440128

TAF KJAN
Valid from the 04 at 12:00 until the 05 at 12:00 UTC


041120Z 0412/0512 34004KT P6SM SCT050 BKN100
FM041800 35006KT P6SM VCSH BKN050 BKN090
FM050000 02003KT P6SM BKN100
FM050800 36003KT P6SM BKN015



MET'MAP, your aeronautical weather chart ! - Copyright ORBIFLY December 2007 - Disclaimer

ORBIFLY MET'MAP TEAM :

Programming & Development : Alexandra Zaïnal
Concept & original design : Baudouin d'Aumeries
Assistance for programming : Marc-Olivier Méhu
Technical & hardware support : Manuel Goepfert

Contact : metmap@orbifly.com




SOURCES & CREDITS :

   NOAA       Earth
Advisory